createdAt,value
2023-12-20T00:04:34.025Z,7.50
2023-12-20T00:14:40.662Z,6.90
2023-12-20T00:24:47.321Z,6.80
2023-12-20T00:34:54.033Z,6.90
2023-12-20T00:45:02.001Z,7.10
2023-12-20T00:55:09.148Z,6.90
2023-12-20T01:05:16.005Z,7.20
2023-12-20T01:15:22.556Z,6.50
2023-12-20T01:25:29.115Z,7.30
2023-12-20T01:35:35.668Z,7.30
2023-12-20T01:45:42.667Z,6.70
2023-12-20T01:55:50.194Z,7.20
2023-12-20T02:05:57.274Z,6.60
2023-12-20T02:16:03.994Z,7.10
2023-12-20T02:26:11.052Z,7.10
2023-12-20T02:36:17.656Z,7.30
2023-12-20T02:46:24.629Z,8.40
2023-12-20T02:56:31.500Z,8.60
2023-12-20T03:06:38.069Z,8.90
2023-12-20T03:16:44.726Z,9.50
2023-12-20T03:26:51.316Z,9.00
2023-12-20T03:36:58.307Z,10.40
2023-12-20T03:47:04.974Z,10.30
2023-12-20T03:57:11.605Z,10.20
2023-12-20T04:07:18.216Z,11.10
2023-12-20T04:17:27.795Z,11.50
2023-12-20T04:27:34.422Z,11.50
2023-12-20T04:37:41.417Z,12.30
2023-12-20T04:47:49.758Z,16.50
2023-12-20T04:57:57.466Z,12.60
2023-12-20T05:08:04.136Z,13.90
2023-12-20T05:18:11.119Z,16.70
2023-12-20T05:28:18.375Z,13.30
2023-12-20T05:38:25.137Z,16.20
2023-12-20T05:48:31.771Z,15.60
2023-12-20T05:58:38.773Z,15.00
2023-12-20T06:08:46.202Z,14.50
2023-12-20T06:18:52.864Z,16.30
2023-12-20T06:28:59.521Z,18.30
2023-12-20T06:39:07.347Z,17.30
2023-12-20T06:49:14.878Z,18.10
2023-12-20T06:59:21.555Z,18.00
2023-12-20T07:09:28.776Z,16.80
2023-12-20T07:19:35.427Z,16.70
2023-12-20T07:29:42.113Z,17.50
2023-12-20T07:39:48.841Z,16.90
2023-12-20T07:49:55.788Z,17.60
2023-12-20T08:00:02.427Z,18.60
2023-12-20T08:10:09.669Z,17.30
2023-12-20T08:20:22.940Z,16.40
2023-12-20T08:30:33.627Z,14.80
2023-12-20T08:40:40.259Z,15.50
2023-12-20T08:50:46.961Z,15.50
2023-12-20T09:00:53.654Z,15.60
2023-12-20T09:11:00.425Z,16.40
2023-12-20T09:21:07.309Z,17.40
2023-12-20T09:31:13.984Z,19.30
2023-12-20T09:41:20.626Z,22.00
2023-12-20T09:51:27.843Z,22.40
2023-12-20T10:01:34.480Z,22.50
2023-12-20T10:11:41.737Z,20.40
2023-12-20T10:21:48.502Z,21.30
2023-12-20T10:32:00.139Z,20.60
2023-12-20T10:42:08.450Z,20.40
2023-12-20T10:52:16.339Z,21.50
2023-12-20T11:02:24.425Z,22.30
2023-12-20T11:12:51.025Z,20.70
2023-12-20T11:22:58.696Z,21.40
2023-12-20T11:33:05.805Z,19.80
2023-12-20T11:43:12.494Z,19.10
2023-12-20T11:53:22.017Z,21.00
2023-12-20T12:03:28.940Z,19.80
2023-12-20T12:13:35.686Z,16.80
2023-12-20T12:23:42.359Z,15.70
2023-12-20T12:33:49.064Z,16.30
2023-12-20T12:43:57.652Z,18.90
2023-12-20T12:54:06.266Z,19.70
2023-12-20T13:04:13.219Z,22.60
2023-12-20T13:14:19.897Z,25.10
2023-12-20T13:24:26.518Z,21.20
2023-12-20T13:34:33.117Z,27.50
2023-12-20T13:44:39.931Z,26.60
2023-12-20T13:54:46.591Z,20.30
2023-12-20T14:04:53.274Z,22.50
2023-12-20T14:15:00.015Z,21.40
2023-12-20T14:25:07.064Z,20.50
2023-12-20T14:35:14.085Z,18.00
2023-12-20T14:45:20.914Z,20.70
2023-12-20T14:55:30.162Z,21.00
2023-12-20T15:05:36.892Z,19.80
2023-12-20T15:15:46.359Z,24.30
2023-12-20T15:25:54.583Z,22.60
2023-12-20T15:36:01.166Z,22.40
2023-12-20T15:46:07.762Z,20.40
2023-12-20T15:56:14.742Z,19.10
2023-12-20T16:06:20.274Z,17.55
2023-12-20T16:16:26.934Z,27.00
2023-12-20T16:26:33.550Z,22.40
2023-12-20T16:36:56.905Z,17.70
2023-12-20T16:47:03.805Z,17.50
2023-12-20T16:57:10.468Z,17.10
2023-12-20T17:07:17.532Z,17.40
2023-12-20T17:17:24.310Z,17.10
2023-12-20T17:27:30.943Z,17.60
2023-12-20T17:37:37.898Z,18.70
2023-12-20T17:47:46.601Z,18.00
2023-12-20T17:57:53.458Z,14.80
2023-12-20T18:08:00.074Z,15.30
2023-12-20T18:18:06.808Z,13.10
2023-12-20T18:28:13.559Z,14.00
2023-12-20T18:38:20.149Z,14.60
2023-12-20T18:48:26.796Z,14.30
2023-12-20T18:58:33.965Z,11.50
2023-12-20T19:08:42.255Z,10.20
2023-12-20T19:18:49.127Z,9.70
2023-12-20T19:28:55.827Z,10.30
2023-12-20T19:39:02.808Z,10.70
2023-12-20T19:49:09.988Z,10.80
2023-12-20T19:59:16.708Z,11.60
2023-12-20T20:09:23.404Z,12.30
2023-12-20T20:19:33.411Z,11.30
2023-12-20T20:29:40.028Z,11.80
2023-12-20T20:39:49.072Z,9.90
2023-12-20T20:49:57.150Z,10.40
2023-12-20T21:00:03.782Z,9.80
2023-12-20T21:10:11.168Z,8.80
2023-12-20T21:20:17.916Z,9.90
2023-12-20T21:30:24.595Z,10.10
2023-12-20T21:40:31.949Z,10.30
2023-12-20T21:50:39.751Z,10.30
2023-12-20T22:00:46.359Z,11.20
2023-12-20T22:10:53.213Z,11.50
2023-12-20T22:20:59.883Z,14.50
2023-12-20T22:31:06.785Z,10.50
2023-12-20T22:41:13.489Z,10.70
2023-12-20T22:51:20.474Z,9.70
2023-12-20T23:01:27.518Z,9.80
2023-12-20T23:11:34.571Z,9.10
2023-12-20T23:21:41.345Z,9.00
2023-12-20T23:31:47.942Z,9.20
2023-12-20T23:41:54.576Z,9.30
2023-12-20T23:52:01.249Z,9.30
